Terminal Aerodrome Forecast
Issued by NWS

Home | Current Version | Previous Version | Text Only | Print | Product List | Glossary On
Versions: 1 2 3 4 5 6 7 8 9 10 11 12 13 14 15 16 17 18 19 20 21 22 23 24 25 26 27 28 29 30 31 32 33 34 35 36 37 38 39 40 41 42
000
FTUS45 KBOU 242335
TAFBJC
TAF
KBJC 242335Z 2500/2524 12006KT P6SM SCT100
     FM250200 VRB05KT P6SM FEW100
     FM250500 24008KT P6SM FEW100 SCT200
     FM251300 31007KT P6SM SCT090 SCT180
     FM251700 02008KT P6SM FEW070 SCT150
     FM252100 08010KT P6SM SCT070 BKN120
      TEMPO 2522/2524 VRB20G35KT -TSRA BKN070CB=

USA.gov is the U.S. government's official web portal to all federal, state and local government web resources and services.